Southwest Georgia Regional Airport
KABY : now visible

Airfield :











YOU CAN JOIN US ON...

 
LOGIN :

Register | Disclaimer

   EN    FR    IT 

 









Legend :    VFR   Marginal VFR   IFR   Intensive IFR   Very Intensive IFR
Visi :
Ceiling :
>= 8 km
>= 3000ft
5 to 8 km
1000 to 3000 ft
1500m to 5 km
500 to 1000 ft
800 to 1500m
200 to 500 ft
< 800m
< 200 ft
Symbols :   Thunderstorms  Fog  Heavy snow  Heavy precipitations  Wind > 20 kt






- Airport Elevation : 197 ft
- IATA code : ABY


KABY - Southwest Georgia Regional

CURRENT METAR :
  • 071853Z VRB06KT 10SM FEW120 27/17 A3006 RMK AO2 SLP179 T02720172

EXPIRED METARs :
  • 071753Z 20007KT 180V250 10SM FEW120 27/17 A3009 RMK AO2 SLP187 T02670172 10267 20183 58013
  • 071653Z 26010KT 10SM BKN120 26/16 A3011 RMK AO2 SLP195 T02560161

TAF KABY
Valid from the 07 at 18:00 until the 08 at 18:00 UTC


071720Z 0718/0818 23008KT P6SM BKN120
FM080900 24005KT P6SM BKN012
FM081600 27009KT P6SM BKN035



MET'MAP, your aeronautical weather chart ! - Copyright ORBIFLY December 2007 - Disclaimer

ORBIFLY MET'MAP TEAM :

Programming & Development : Alexandra Zaïnal
Concept & original design : Baudouin d'Aumeries
Assistance for programming : Marc-Olivier Méhu
Technical & hardware support : Manuel Goepfert

Contact : metmap@orbifly.com




SOURCES & CREDITS :

   NOAA       Earth
Advisory